sensor_id;sensor_type;location;lat;lon;timestamp;temperature;humidity
20735;DHT22;10528;52.124;5.196;2024-02-26T00:00:12;6.50;99.90
20735;DHT22;10528;52.124;5.196;2024-02-26T00:02:39;6.40;99.90
20735;DHT22;10528;52.124;5.196;2024-02-26T00:05:07;6.50;99.90
20735;DHT22;10528;52.124;5.196;2024-02-26T00:07:35;6.50;99.90
20735;DHT22;10528;52.124;5.196;2024-02-26T00:10:02;6.50;99.90
20735;DHT22;10528;52.124;5.196;2024-02-26T00:12:30;6.40;99.90
20735;DHT22;10528;52.124;5.196;2024-02-26T00:14:57;6.40;99.90
20735;DHT22;10528;52.124;5.196;2024-02-26T00:17:25;6.30;99.90
20735;DHT22;10528;52.124;5.196;2024-02-26T00:19:52;6.30;99.90
20735;DHT22;10528;52.124;5.196;2024-02-26T00:22:19;6.30;99.90
20735;DHT22;10528;52.124;5.196;2024-02-26T00:24:48;6.30;99.90
20735;DHT22;10528;52.124;5.196;2024-02-26T00:27:15;6.30;99.90
20735;DHT22;10528;52.124;5.196;2024-02-26T00:29:42;6.30;99.90
20735;DHT22;10528;52.124;5.196;2024-02-26T00:32:09;6.30;99.90
20735;DHT22;10528;52.124;5.196;2024-02-26T00:34:36;6.30;99.90
20735;DHT22;10528;52.124;5.196;2024-02-26T00:37:03;6.30;99.90
20735;DHT22;10528;52.124;5.196;2024-02-26T00:39:30;6.20;99.90
20735;DHT22;10528;52.124;5.196;2024-02-26T00:41:57;6.20;99.90
20735;DHT22;10528;52.124;5.196;2024-02-26T00:44:24;6.20;99.90
20735;DHT22;10528;52.124;5.196;2024-02-26T00:46:51;6.20;99.90
20735;DHT22;10528;52.124;5.196;2024-02-26T00:49:18;6.20;99.90
20735;DHT22;10528;52.124;5.196;2024-02-26T00:51:45;6.10;99.90
20735;DHT22;10528;52.124;5.196;2024-02-26T00:54:12;6.10;99.90
20735;DHT22;10528;52.124;5.196;2024-02-26T00:56:39;6.00;99.90
20735;DHT22;10528;52.124;5.196;2024-02-26T00:59:05;6.00;99.90
20735;DHT22;10528;52.124;5.196;2024-02-26T01:01:32;6.00;99.90
20735;DHT22;10528;52.124;5.196;2024-02-26T01:03:59;5.90;99.90
20735;DHT22;10528;52.124;5.196;2024-02-26T01:06:26;5.90;99.90
20735;DHT22;10528;52.124;5.196;2024-02-26T01:08:53;5.90;99.90
20735;DHT22;10528;52.124;5.196;2024-02-26T01:11:20;5.90;99.90
20735;DHT22;10528;52.124;5.196;2024-02-26T01:13:47;6.00;99.90
20735;DHT22;10528;52.124;5.196;2024-02-26T01:16:15;6.00;99.90
20735;DHT22;10528;52.124;5.196;2024-02-26T01:18:41;5.90;99.90
20735;DHT22;10528;52.124;5.196;2024-02-26T01:21:09;5.90;99.90
20735;DHT22;10528;52.124;5.196;2024-02-26T01:23:36;5.90;99.90
20735;DHT22;10528;52.124;5.196;2024-02-26T01:26:03;5.90;99.90
20735;DHT22;10528;52.124;5.196;2024-02-26T01:28:31;5.90;99.90
20735;DHT22;10528;52.124;5.196;2024-02-26T01:30:58;6.00;99.90
20735;DHT22;10528;52.124;5.196;2024-02-26T01:33:26;6.00;99.90
20735;DHT22;10528;52.124;5.196;2024-02-26T01:35:53;5.90;99.90
20735;DHT22;10528;52.124;5.196;2024-02-26T01:38:20;5.90;99.90
20735;DHT22;10528;52.124;5.196;2024-02-26T01:40:47;5.90;99.90
20735;DHT22;10528;52.124;5.196;2024-02-26T01:43:14;5.90;99.90
20735;DHT22;10528;52.124;5.196;2024-02-26T01:45:41;5.90;99.90
20735;DHT22;10528;52.124;5.196;2024-02-26T01:48:08;5.90;99.90
20735;DHT22;10528;52.124;5.196;2024-02-26T01:50:38;5.90;99.90
20735;DHT22;10528;52.124;5.196;2024-02-26T01:53:07;5.90;99.90
20735;DHT22;10528;52.124;5.196;2024-02-26T01:55:35;5.90;99.90
20735;DHT22;10528;52.124;5.196;2024-02-26T01:58:07;6.00;99.90
20735;DHT22;10528;52.124;5.196;2024-02-26T02:00:34;6.00;99.90
20735;DHT22;10528;52.124;5.196;2024-02-26T02:03:02;5.90;99.90
20735;DHT22;10528;52.124;5.196;2024-02-26T02:05:30;5.90;99.90
20735;DHT22;10528;52.124;5.196;2024-02-26T02:07:58;6.00;99.90
20735;DHT22;10528;52.124;5.196;2024-02-26T02:10:26;6.00;99.90
20735;DHT22;10528;52.124;5.196;2024-02-26T02:12:54;5.90;99.90
20735;DHT22;10528;52.124;5.196;2024-02-26T02:15:21;5.90;99.90
20735;DHT22;10528;52.124;5.196;2024-02-26T02:17:48;5.90;99.90
20735;DHT22;10528;52.124;5.196;2024-02-26T02:20:16;5.90;99.90
20735;DHT22;10528;52.124;5.196;2024-02-26T02:22:45;5.90;99.90
20735;DHT22;10528;52.124;5.196;2024-02-26T02:25:13;5.80;99.90
20735;DHT22;10528;52.124;5.196;2024-02-26T02:27:41;5.90;99.90
20735;DHT22;10528;52.124;5.196;2024-02-26T02:30:09;5.90;99.90
20735;DHT22;10528;52.124;5.196;2024-02-26T02:32:39;5.80;99.90
20735;DHT22;10528;52.124;5.196;2024-02-26T02:35:10;5.80;99.90
20735;DHT22;10528;52.124;5.196;2024-02-26T02:37:37;5.90;99.90
20735;DHT22;10528;52.124;5.196;2024-02-26T02:40:04;5.90;99.90
20735;DHT22;10528;52.124;5.196;2024-02-26T02:42:31;6.00;99.90
20735;DHT22;10528;52.124;5.196;2024-02-26T02:44:58;5.90;99.90
20735;DHT22;10528;52.124;5.196;2024-02-26T02:47:26;5.90;99.90
20735;DHT22;10528;52.124;5.196;2024-02-26T02:49:52;5.90;99.90
20735;DHT22;10528;52.124;5.196;2024-02-26T02:52:19;5.80;99.90
20735;DHT22;10528;52.124;5.196;2024-02-26T02:54:46;5.90;99.90
20735;DHT22;10528;52.124;5.196;2024-02-26T02:57:13;5.80;99.90
20735;DHT22;10528;52.124;5.196;2024-02-26T02:59:40;5.90;99.90
20735;DHT22;10528;52.124;5.196;2024-02-26T03:02:07;5.90;99.90
20735;DHT22;10528;52.124;5.196;2024-02-26T03:04:35;5.80;99.90
20735;DHT22;10528;52.124;5.196;2024-02-26T03:07:02;5.90;99.90
20735;DHT22;10528;52.124;5.196;2024-02-26T03:09:29;5.80;99.90
20735;DHT22;10528;52.124;5.196;2024-02-26T03:11:56;5.90;99.90
20735;DHT22;10528;52.124;5.196;2024-02-26T03:14:23;5.80;99.90
20735;DHT22;10528;52.124;5.196;2024-02-26T03:16:53;5.90;99.90
20735;DHT22;10528;52.124;5.196;2024-02-26T03:19:21;5.90;99.90
20735;DHT22;10528;52.124;5.196;2024-02-26T03:21:49;5.80;99.90
20735;DHT22;10528;52.124;5.196;2024-02-26T03:24:16;5.80;99.90
20735;DHT22;10528;52.124;5.196;2024-02-26T03:26:43;5.90;99.90
20735;DHT22;10528;52.124;5.196;2024-02-26T03:29:10;5.90;99.90
20735;DHT22;10528;52.124;5.196;2024-02-26T03:31:37;5.80;99.90
20735;DHT22;10528;52.124;5.196;2024-02-26T03:34:03;5.80;99.90
20735;DHT22;10528;52.124;5.196;2024-02-26T03:36:30;5.80;99.90
20735;DHT22;10528;52.124;5.196;2024-02-26T03:38:57;5.80;99.90
20735;DHT22;10528;52.124;5.196;2024-02-26T03:41:25;5.80;99.90
20735;DHT22;10528;52.124;5.196;2024-02-26T03:43:52;5.80;99.90
20735;DHT22;10528;52.124;5.196;2024-02-26T03:46:19;5.80;99.90
20735;DHT22;10528;52.124;5.196;2024-02-26T03:48:46;5.80;99.90
20735;DHT22;10528;52.124;5.196;2024-02-26T03:51:13;5.80;99.90
20735;DHT22;10528;52.124;5.196;2024-02-26T03:53:40;5.80;99.90
20735;DHT22;10528;52.124;5.196;2024-02-26T03:56:07;5.80;99.90
20735;DHT22;10528;52.124;5.196;2024-02-26T03:58:37;5.80;99.90
20735;DHT22;10528;52.124;5.196;2024-02-26T04:01:04;5.80;99.90
20735;DHT22;10528;52.124;5.196;2024-02-26T04:03:34;5.80;99.90
20735;DHT22;10528;52.124;5.196;2024-02-26T04:06:02;5.70;99.90
20735;DHT22;10528;52.124;5.196;2024-02-26T04:08:29;5.80;99.90
20735;DHT22;10528;52.124;5.196;2024-02-26T04:10:56;5.80;99.90
20735;DHT22;10528;52.124;5.196;2024-02-26T04:13:23;5.80;99.90
20735;DHT22;10528;52.124;5.196;2024-02-26T04:15:51;5.80;99.90
20735;DHT22;10528;52.124;5.196;2024-02-26T04:18:17;5.80;99.90
20735;DHT22;10528;52.124;5.196;2024-02-26T04:20:45;5.80;99.90
20735;DHT22;10528;52.124;5.196;2024-02-26T04:23:11;5.80;99.90
20735;DHT22;10528;52.124;5.196;2024-02-26T04:25:38;5.80;99.90
20735;DHT22;10528;52.124;5.196;2024-02-26T04:28:05;5.80;99.90
20735;DHT22;10528;52.124;5.196;2024-02-26T04:30:32;5.80;99.90
20735;DHT22;10528;52.124;5.196;2024-02-26T04:32:59;5.80;99.90
20735;DHT22;10528;52.124;5.196;2024-02-26T04:35:26;5.80;99.90
20735;DHT22;10528;52.124;5.196;2024-02-26T04:37:53;5.80;99.90
20735;DHT22;10528;52.124;5.196;2024-02-26T04:40:20;5.80;99.90
20735;DHT22;10528;52.124;5.196;2024-02-26T04:42:47;5.90;99.90
20735;DHT22;10528;52.124;5.196;2024-02-26T04:45:14;5.70;99.90
20735;DHT22;10528;52.124;5.196;2024-02-26T04:47:41;5.80;99.90
20735;DHT22;10528;52.124;5.196;2024-02-26T04:50:08;5.70;99.90
20735;DHT22;10528;52.124;5.196;2024-02-26T04:52:36;5.70;99.90
20735;DHT22;10528;52.124;5.196;2024-02-26T04:55:03;5.70;99.90
20735;DHT22;10528;52.124;5.196;2024-02-26T04:57:30;5.70;99.90
20735;DHT22;10528;52.124;5.196;2024-02-26T04:59:57;5.70;99.90
20735;DHT22;10528;52.124;5.196;2024-02-26T05:02:24;5.70;99.90
20735;DHT22;10528;52.124;5.196;2024-02-26T05:04:51;5.70;99.90
20735;DHT22;10528;52.124;5.196;2024-02-26T05:07:18;5.70;99.90
20735;DHT22;10528;52.124;5.196;2024-02-26T05:09:46;5.70;99.90
20735;DHT22;10528;52.124;5.196;2024-02-26T05:12:16;5.70;99.90
20735;DHT22;10528;52.124;5.196;2024-02-26T05:14:43;5.70;99.90
20735;DHT22;10528;52.124;5.196;2024-02-26T05:17:10;5.60;99.90
20735;DHT22;10528;52.124;5.196;2024-02-26T05:19:37;5.60;99.90
20735;DHT22;10528;52.124;5.196;2024-02-26T05:22:03;5.70;99.90
20735;DHT22;10528;52.124;5.196;2024-02-26T05:24:30;5.70;99.90
20735;DHT22;10528;52.124;5.196;2024-02-26T05:26:59;5.70;99.90
20735;DHT22;10528;52.124;5.196;2024-02-26T05:29:26;5.70;99.90
20735;DHT22;10528;52.124;5.196;2024-02-26T05:31:53;5.70;99.90
20735;DHT22;10528;52.124;5.196;2024-02-26T05:34:20;5.60;99.90
20735;DHT22;10528;52.124;5.196;2024-02-26T05:36:49;5.60;99.90
20735;DHT22;10528;52.124;5.196;2024-02-26T05:39:15;5.70;99.90
20735;DHT22;10528;52.124;5.196;2024-02-26T05:41:46;5.60;99.90
20735;DHT22;10528;52.124;5.196;2024-02-26T05:44:13;5.60;99.90
20735;DHT22;10528;52.124;5.196;2024-02-26T05:46:41;5.60;99.90
20735;DHT22;10528;52.124;5.196;2024-02-26T05:49:08;5.60;99.90
20735;DHT22;10528;52.124;5.196;2024-02-26T05:51:36;5.70;99.90
20735;DHT22;10528;52.124;5.196;2024-02-26T05:54:03;5.60;99.90
20735;DHT22;10528;52.124;5.196;2024-02-26T05:56:30;5.60;99.90
20735;DHT22;10528;52.124;5.196;2024-02-26T05:58:57;5.60;99.90
20735;DHT22;10528;52.124;5.196;2024-02-26T06:01:24;5.60;99.90
20735;DHT22;10528;52.124;5.196;2024-02-26T06:03:52;5.60;99.90
20735;DHT22;10528;52.124;5.196;2024-02-26T06:06:19;5.60;99.90
20735;DHT22;10528;52.124;5.196;2024-02-26T06:08:48;5.60;99.90
20735;DHT22;10528;52.124;5.196;2024-02-26T06:11:16;5.60;99.90
20735;DHT22;10528;52.124;5.196;2024-02-26T06:13:43;5.70;99.90
20735;DHT22;10528;52.124;5.196;2024-02-26T06:16:10;5.60;99.90
20735;DHT22;10528;52.124;5.196;2024-02-26T06:18:36;5.60;99.90
20735;DHT22;10528;52.124;5.196;2024-02-26T06:21:04;5.60;99.90
20735;DHT22;10528;52.124;5.196;2024-02-26T06:23:31;5.60;99.90
20735;DHT22;10528;52.124;5.196;2024-02-26T06:25:58;5.60;99.90
20735;DHT22;10528;52.124;5.196;2024-02-26T06:28:25;5.70;99.90
20735;DHT22;10528;52.124;5.196;2024-02-26T06:30:52;5.60;99.90
20735;DHT22;10528;52.124;5.196;2024-02-26T06:33:19;5.60;99.90
20735;DHT22;10528;52.124;5.196;2024-02-26T06:35:46;5.60;99.90
20735;DHT22;10528;52.124;5.196;2024-02-26T06:38:13;5.70;99.90
20735;DHT22;10528;52.124;5.196;2024-02-26T06:40:40;5.70;99.90
20735;DHT22;10528;52.124;5.196;2024-02-26T06:43:07;5.70;99.90
20735;DHT22;10528;52.124;5.196;2024-02-26T06:45:34;5.70;99.90
20735;DHT22;10528;52.124;5.196;2024-02-26T06:48:01;5.70;99.90
20735;DHT22;10528;52.124;5.196;2024-02-26T06:50:29;5.60;99.90
20735;DHT22;10528;52.124;5.196;2024-02-26T06:52:56;5.70;99.90
20735;DHT22;10528;52.124;5.196;2024-02-26T06:55:23;5.70;99.90
20735;DHT22;10528;52.124;5.196;2024-02-26T06:57:50;5.70;99.90
20735;DHT22;10528;52.124;5.196;2024-02-26T07:00:17;5.70;99.90
20735;DHT22;10528;52.124;5.196;2024-02-26T07:02:44;5.70;99.90
20735;DHT22;10528;52.124;5.196;2024-02-26T07:05:11;5.80;99.90
20735;DHT22;10528;52.124;5.196;2024-02-26T07:07:39;5.80;99.90
20735;DHT22;10528;52.124;5.196;2024-02-26T07:10:07;5.70;99.90
20735;DHT22;10528;52.124;5.196;2024-02-26T07:12:34;5.70;99.90
20735;DHT22;10528;52.124;5.196;2024-02-26T07:15:03;5.70;99.90
20735;DHT22;10528;52.124;5.196;2024-02-26T07:17:31;5.70;99.90
20735;DHT22;10528;52.124;5.196;2024-02-26T07:20:00;5.70;99.90
20735;DHT22;10528;52.124;5.196;2024-02-26T07:22:29;5.70;99.90
20735;DHT22;10528;52.124;5.196;2024-02-26T07:24:56;5.70;99.90
20735;DHT22;10528;52.124;5.196;2024-02-26T07:27:23;5.70;99.90
20735;DHT22;10528;52.124;5.196;2024-02-26T07:29:50;5.70;99.90
20735;DHT22;10528;52.124;5.196;2024-02-26T07:32:17;5.70;99.90
20735;DHT22;10528;52.124;5.196;2024-02-26T07:34:44;5.80;99.90
20735;DHT22;10528;52.124;5.196;2024-02-26T07:37:12;5.70;99.90
20735;DHT22;10528;52.124;5.196;2024-02-26T07:39:39;5.70;99.90
20735;DHT22;10528;52.124;5.196;2024-02-26T07:42:06;5.70;99.90
20735;DHT22;10528;52.124;5.196;2024-02-26T07:44:33;5.80;99.90
20735;DHT22;10528;52.124;5.196;2024-02-26T07:47:00;5.80;99.90
20735;DHT22;10528;52.124;5.196;2024-02-26T07:49:30;5.70;99.90
20735;DHT22;10528;52.124;5.196;2024-02-26T07:51:57;5.70;99.90
20735;DHT22;10528;52.124;5.196;2024-02-26T07:54:25;5.70;99.90
20735;DHT22;10528;52.124;5.196;2024-02-26T07:56:52;5.80;99.90
20735;DHT22;10528;52.124;5.196;2024-02-26T07:59:19;5.80;99.90
20735;DHT22;10528;52.124;5.196;2024-02-26T08:01:52;5.80;99.90
20735;DHT22;10528;52.124;5.196;2024-02-26T08:04:24;5.80;99.90
20735;DHT22;10528;52.124;5.196;2024-02-26T08:06:53;5.80;99.90
20735;DHT22;10528;52.124;5.196;2024-02-26T08:09:22;5.90;99.90
20735;DHT22;10528;52.124;5.196;2024-02-26T08:11:49;5.90;99.90
20735;DHT22;10528;52.124;5.196;2024-02-26T08:14:16;5.80;99.90
20735;DHT22;10528;52.124;5.196;2024-02-26T08:16:43;5.80;99.90
20735;DHT22;10528;52.124;5.196;2024-02-26T08:19:10;5.80;99.90
20735;DHT22;10528;52.124;5.196;2024-02-26T08:21:40;5.80;99.90
20735;DHT22;10528;52.124;5.196;2024-02-26T08:24:07;5.80;99.90
20735;DHT22;10528;52.124;5.196;2024-02-26T08:26:34;5.80;99.90
20735;DHT22;10528;52.124;5.196;2024-02-26T08:29:01;5.80;99.90
20735;DHT22;10528;52.124;5.196;2024-02-26T08:31:28;5.80;99.90
20735;DHT22;10528;52.124;5.196;2024-02-26T08:33:56;5.80;99.90
20735;DHT22;10528;52.124;5.196;2024-02-26T08:36:25;5.80;99.90
20735;DHT22;10528;52.124;5.196;2024-02-26T08:38:52;5.80;99.90
20735;DHT22;10528;52.124;5.196;2024-02-26T08:41:19;5.70;99.90
20735;DHT22;10528;52.124;5.196;2024-02-26T08:43:45;5.80;99.90
20735;DHT22;10528;52.124;5.196;2024-02-26T08:46:13;5.80;99.90
20735;DHT22;10528;52.124;5.196;2024-02-26T08:48:40;5.80;99.90
20735;DHT22;10528;52.124;5.196;2024-02-26T08:51:08;5.90;99.90
20735;DHT22;10528;52.124;5.196;2024-02-26T08:53:36;5.90;99.90
20735;DHT22;10528;52.124;5.196;2024-02-26T08:56:10;5.80;99.90
20735;DHT22;10528;52.124;5.196;2024-02-26T08:58:43;5.80;99.90
20735;DHT22;10528;52.124;5.196;2024-02-26T09:01:10;5.80;99.90
20735;DHT22;10528;52.124;5.196;2024-02-26T09:03:37;5.90;99.90
20735;DHT22;10528;52.124;5.196;2024-02-26T09:06:04;5.80;99.90
20735;DHT22;10528;52.124;5.196;2024-02-26T09:08:33;5.80;99.90
20735;DHT22;10528;52.124;5.196;2024-02-26T09:11:02;5.90;99.90
20735;DHT22;10528;52.124;5.196;2024-02-26T09:13:30;5.90;99.90
20735;DHT22;10528;52.124;5.196;2024-02-26T09:15:57;5.80;99.90
20735;DHT22;10528;52.124;5.196;2024-02-26T09:18:25;5.80;99.90
20735;DHT22;10528;52.124;5.196;2024-02-26T09:20:52;5.80;99.90
20735;DHT22;10528;52.124;5.196;2024-02-26T09:23:19;5.80;99.90
20735;DHT22;10528;52.124;5.196;2024-02-26T09:25:46;5.90;99.90
20735;DHT22;10528;52.124;5.196;2024-02-26T09:28:13;5.90;99.90
20735;DHT22;10528;52.124;5.196;2024-02-26T09:30:42;5.90;99.90
20735;DHT22;10528;52.124;5.196;2024-02-26T09:33:10;5.80;99.90
20735;DHT22;10528;52.124;5.196;2024-02-26T09:35:38;5.90;99.90
20735;DHT22;10528;52.124;5.196;2024-02-26T09:38:05;5.90;99.90
20735;DHT22;10528;52.124;5.196;2024-02-26T09:40:34;5.90;99.90
20735;DHT22;10528;52.124;5.196;2024-02-26T09:43:04;5.90;99.90
20735;DHT22;10528;52.124;5.196;2024-02-26T09:45:33;5.90;99.90
20735;DHT22;10528;52.124;5.196;2024-02-26T09:48:02;5.80;99.90
20735;DHT22;10528;52.124;5.196;2024-02-26T09:50:32;5.80;99.90
20735;DHT22;10528;52.124;5.196;2024-02-26T09:52:59;5.80;99.90
20735;DHT22;10528;52.124;5.196;2024-02-26T09:55:29;5.80;99.90
20735;DHT22;10528;52.124;5.196;2024-02-26T09:57:56;5.90;99.90
20735;DHT22;10528;52.124;5.196;2024-02-26T10:00:25;5.80;99.90
20735;DHT22;10528;52.124;5.196;2024-02-26T10:03:03;5.90;99.90
20735;DHT22;10528;52.124;5.196;2024-02-26T10:05:32;5.90;99.90
20735;DHT22;10528;52.124;5.196;2024-02-26T10:08:01;5.90;99.90
20735;DHT22;10528;52.124;5.196;2024-02-26T10:10:29;5.80;99.90
20735;DHT22;10528;52.124;5.196;2024-02-26T10:12:56;5.80;99.90
20735;DHT22;10528;52.124;5.196;2024-02-26T10:15:23;5.80;99.90
20735;DHT22;10528;52.124;5.196;2024-02-26T10:17:50;5.80;99.90
20735;DHT22;10528;52.124;5.196;2024-02-26T10:20:18;5.80;99.90
20735;DHT22;10528;52.124;5.196;2024-02-26T10:22:48;5.80;99.90
20735;DHT22;10528;52.124;5.196;2024-02-26T10:25:15;5.80;99.90
20735;DHT22;10528;52.124;5.196;2024-02-26T10:27:43;5.80;99.90
20735;DHT22;10528;52.124;5.196;2024-02-26T10:30:17;5.80;99.90
20735;DHT22;10528;52.124;5.196;2024-02-26T10:32:46;5.90;99.90
20735;DHT22;10528;52.124;5.196;2024-02-26T10:35:18;6.00;99.90
20735;DHT22;10528;52.124;5.196;2024-02-26T10:37:48;5.90;99.90
20735;DHT22;10528;52.124;5.196;2024-02-26T10:40:16;6.00;99.90
20735;DHT22;10528;52.124;5.196;2024-02-26T10:42:44;6.00;99.90
20735;DHT22;10528;52.124;5.196;2024-02-26T10:45:13;5.90;99.90
20735;DHT22;10528;52.124;5.196;2024-02-26T10:47:41;6.00;99.90
20735;DHT22;10528;52.124;5.196;2024-02-26T10:50:13;6.10;99.90
20735;DHT22;10528;52.124;5.196;2024-02-26T10:52:42;6.10;99.90
20735;DHT22;10528;52.124;5.196;2024-02-26T10:55:15;6.10;99.90
20735;DHT22;10528;52.124;5.196;2024-02-26T10:57:47;6.10;99.90
20735;DHT22;10528;52.124;5.196;2024-02-26T11:00:19;6.00;99.90
20735;DHT22;10528;52.124;5.196;2024-02-26T11:02:47;6.10;99.90
20735;DHT22;10528;52.124;5.196;2024-02-26T11:05:15;6.10;99.90
20735;DHT22;10528;52.124;5.196;2024-02-26T11:07:43;6.10;99.90
20735;DHT22;10528;52.124;5.196;2024-02-26T11:10:11;6.20;99.90
20735;DHT22;10528;52.124;5.196;2024-02-26T11:12:39;6.20;99.90
20735;DHT22;10528;52.124;5.196;2024-02-26T11:15:08;6.10;99.90
20735;DHT22;10528;52.124;5.196;2024-02-26T11:17:36;6.20;99.90
20735;DHT22;10528;52.124;5.196;2024-02-26T11:20:08;6.30;99.90
20735;DHT22;10528;52.124;5.196;2024-02-26T11:22:37;6.30;99.90
20735;DHT22;10528;52.124;5.196;2024-02-26T11:25:05;6.30;99.90
20735;DHT22;10528;52.124;5.196;2024-02-26T11:27:37;6.30;99.90
20735;DHT22;10528;52.124;5.196;2024-02-26T11:30:12;6.30;99.90
20735;DHT22;10528;52.124;5.196;2024-02-26T11:32:40;6.30;99.90
20735;DHT22;10528;52.124;5.196;2024-02-26T11:35:10;6.40;99.90
20735;DHT22;10528;52.124;5.196;2024-02-26T11:37:50;6.20;99.90
20735;DHT22;10528;52.124;5.196;2024-02-26T11:40:19;6.30;99.90
20735;DHT22;10528;52.124;5.196;2024-02-26T11:42:47;6.30;99.90
20735;DHT22;10528;52.124;5.196;2024-02-26T11:48:17;6.40;99.90
20735;DHT22;10528;52.124;5.196;2024-02-26T11:50:49;6.40;99.90
20735;DHT22;10528;52.124;5.196;2024-02-26T11:53:28;6.50;99.90
20735;DHT22;10528;52.124;5.196;2024-02-26T11:58:43;6.50;99.90
20735;DHT22;10528;52.124;5.196;2024-02-26T12:06:57;6.40;99.90
20735;DHT22;10528;52.124;5.196;2024-02-26T12:09:41;6.50;99.90
20735;DHT22;10528;52.124;5.196;2024-02-26T12:12:10;6.50;99.90
20735;DHT22;10528;52.124;5.196;2024-02-26T12:14:51;6.40;99.90
20735;DHT22;10528;52.124;5.196;2024-02-26T12:17:23;6.50;99.90
20735;DHT22;10528;52.124;5.196;2024-02-26T12:19:52;6.50;99.90
20735;DHT22;10528;52.124;5.196;2024-02-26T12:22:20;6.50;99.90
20735;DHT22;10528;52.124;5.196;2024-02-26T12:24:47;6.50;99.90
20735;DHT22;10528;52.124;5.196;2024-02-26T12:27:14;6.50;99.90
20735;DHT22;10528;52.124;5.196;2024-02-26T12:29:42;6.50;99.90
20735;DHT22;10528;52.124;5.196;2024-02-26T12:32:09;6.50;99.90
20735;DHT22;10528;52.124;5.196;2024-02-26T12:34:37;6.60;99.90
20735;DHT22;10528;52.124;5.196;2024-02-26T12:37:04;6.50;99.90
20735;DHT22;10528;52.124;5.196;2024-02-26T12:39:31;6.50;99.90
20735;DHT22;10528;52.124;5.196;2024-02-26T12:41:59;6.50;99.90
20735;DHT22;10528;52.124;5.196;2024-02-26T12:44:26;6.50;99.90
20735;DHT22;10528;52.124;5.196;2024-02-26T12:47:00;6.50;99.90
20735;DHT22;10528;52.124;5.196;2024-02-26T12:49:30;6.50;99.90
20735;DHT22;10528;52.124;5.196;2024-02-26T12:51:58;6.60;99.90
20735;DHT22;10528;52.124;5.196;2024-02-26T12:54:29;6.70;99.90
20735;DHT22;10528;52.124;5.196;2024-02-26T12:57:01;6.70;99.90
20735;DHT22;10528;52.124;5.196;2024-02-26T12:59:31;6.90;99.90
20735;DHT22;10528;52.124;5.196;2024-02-26T13:01:58;6.80;99.90
20735;DHT22;10528;52.124;5.196;2024-02-26T13:04:28;6.80;99.90
20735;DHT22;10528;52.124;5.196;2024-02-26T13:06:57;6.90;99.90
20735;DHT22;10528;52.124;5.196;2024-02-26T13:09:33;6.80;99.90
20735;DHT22;10528;52.124;5.196;2024-02-26T13:12:04;6.70;99.90
20735;DHT22;10528;52.124;5.196;2024-02-26T13:14:32;6.80;99.90
20735;DHT22;10528;52.124;5.196;2024-02-26T13:17:01;6.80;99.90
20735;DHT22;10528;52.124;5.196;2024-02-26T13:19:29;6.80;99.90
20735;DHT22;10528;52.124;5.196;2024-02-26T13:22:03;6.90;99.90
20735;DHT22;10528;52.124;5.196;2024-02-26T13:24:35;6.90;99.90
20735;DHT22;10528;52.124;5.196;2024-02-26T13:27:03;6.70;99.90
20735;DHT22;10528;52.124;5.196;2024-02-26T13:29:31;6.70;99.90
20735;DHT22;10528;52.124;5.196;2024-02-26T13:31:59;6.70;99.90
20735;DHT22;10528;52.124;5.196;2024-02-26T13:34:27;6.80;99.90
20735;DHT22;10528;52.124;5.196;2024-02-26T13:36:55;6.70;99.90
20735;DHT22;10528;52.124;5.196;2024-02-26T13:39:24;6.70;99.90
20735;DHT22;10528;52.124;5.196;2024-02-26T13:41:53;6.70;99.90
20735;DHT22;10528;52.124;5.196;2024-02-26T13:44:21;6.80;99.90
20735;DHT22;10528;52.124;5.196;2024-02-26T13:46:48;6.80;99.90
20735;DHT22;10528;52.124;5.196;2024-02-26T13:49:18;6.80;99.90
20735;DHT22;10528;52.124;5.196;2024-02-26T13:51:46;6.90;99.90
20735;DHT22;10528;52.124;5.196;2024-02-26T13:54:13;6.70;99.90
20735;DHT22;10528;52.124;5.196;2024-02-26T13:56:41;6.80;99.90
20735;DHT22;10528;52.124;5.196;2024-02-26T13:59:12;6.80;99.90
20735;DHT22;10528;52.124;5.196;2024-02-26T14:01:39;6.80;99.90
20735;DHT22;10528;52.124;5.196;2024-02-26T14:04:06;6.90;99.90
20735;DHT22;10528;52.124;5.196;2024-02-26T14:06:35;6.90;99.90
20735;DHT22;10528;52.124;5.196;2024-02-26T14:09:02;6.90;99.90
20735;DHT22;10528;52.124;5.196;2024-02-26T14:11:30;6.90;99.90
20735;DHT22;10528;52.124;5.196;2024-02-26T14:13:57;6.90;99.90
20735;DHT22;10528;52.124;5.196;2024-02-26T14:16:24;6.80;99.90
20735;DHT22;10528;52.124;5.196;2024-02-26T14:18:53;6.90;99.90
20735;DHT22;10528;52.124;5.196;2024-02-26T14:21:20;6.80;99.90
20735;DHT22;10528;52.124;5.196;2024-02-26T14:23:47;6.90;99.90
20735;DHT22;10528;52.124;5.196;2024-02-26T14:26:14;7.00;99.90
20735;DHT22;10528;52.124;5.196;2024-02-26T14:28:41;7.00;99.90
20735;DHT22;10528;52.124;5.196;2024-02-26T14:31:08;7.00;99.90
20735;DHT22;10528;52.124;5.196;2024-02-26T14:33:40;7.00;99.90
20735;DHT22;10528;52.124;5.196;2024-02-26T14:36:07;7.00;99.90
20735;DHT22;10528;52.124;5.196;2024-02-26T14:38:35;7.00;99.90
20735;DHT22;10528;52.124;5.196;2024-02-26T14:41:02;6.90;99.90
20735;DHT22;10528;52.124;5.196;2024-02-26T14:43:30;6.80;99.90
20735;DHT22;10528;52.124;5.196;2024-02-26T14:45:58;6.90;99.90
20735;DHT22;10528;52.124;5.196;2024-02-26T14:48:28;6.90;99.90
20735;DHT22;10528;52.124;5.196;2024-02-26T14:50:57;7.00;99.90
20735;DHT22;10528;52.124;5.196;2024-02-26T14:53:26;7.00;99.90
20735;DHT22;10528;52.124;5.196;2024-02-26T14:55:53;7.00;99.90
20735;DHT22;10528;52.124;5.196;2024-02-26T14:58:20;7.00;99.90
20735;DHT22;10528;52.124;5.196;2024-02-26T15:00:47;7.10;99.90
20735;DHT22;10528;52.124;5.196;2024-02-26T15:03:14;7.10;99.90
20735;DHT22;10528;52.124;5.196;2024-02-26T15:05:40;7.00;99.90
20735;DHT22;10528;52.124;5.196;2024-02-26T15:08:07;7.00;99.90
20735;DHT22;10528;52.124;5.196;2024-02-26T15:10:36;7.10;99.90
20735;DHT22;10528;52.124;5.196;2024-02-26T15:13:03;7.10;99.90
20735;DHT22;10528;52.124;5.196;2024-02-26T15:15:31;7.00;99.90
20735;DHT22;10528;52.124;5.196;2024-02-26T15:17:58;7.00;99.90
20735;DHT22;10528;52.124;5.196;2024-02-26T15:20:25;7.10;99.90
20735;DHT22;10528;52.124;5.196;2024-02-26T15:22:52;7.10;99.90
20735;DHT22;10528;52.124;5.196;2024-02-26T15:25:19;7.10;99.90
20735;DHT22;10528;52.124;5.196;2024-02-26T15:27:46;7.10;99.90
20735;DHT22;10528;52.124;5.196;2024-02-26T15:30:13;7.10;99.90
20735;DHT22;10528;52.124;5.196;2024-02-26T15:32:40;7.10;99.90
20735;DHT22;10528;52.124;5.196;2024-02-26T15:35:07;7.10;99.90
20735;DHT22;10528;52.124;5.196;2024-02-26T15:37:35;7.10;99.90
20735;DHT22;10528;52.124;5.196;2024-02-26T15:40:02;7.00;99.90
20735;DHT22;10528;52.124;5.196;2024-02-26T15:42:30;7.00;99.90
20735;DHT22;10528;52.124;5.196;2024-02-26T15:44:57;6.90;99.90
20735;DHT22;10528;52.124;5.196;2024-02-26T15:47:23;7.00;99.90
20735;DHT22;10528;52.124;5.196;2024-02-26T15:49:50;6.90;99.90
20735;DHT22;10528;52.124;5.196;2024-02-26T15:52:17;6.90;99.90
20735;DHT22;10528;52.124;5.196;2024-02-26T15:54:44;6.90;99.90
20735;DHT22;10528;52.124;5.196;2024-02-26T15:57:12;7.00;99.90
20735;DHT22;10528;52.124;5.196;2024-02-26T15:59:39;7.00;99.90